Reynolds, Georgia
Current Conditions -  °F | °C
As of 3:55 PM on Sunday 23 Nov 2014 (Local Time) from KPXE Reporting Station
Thunderstorm Thunderstorm  
Wind Chill: 69°   Ceiling: 300
Heat Index: 69°   Visibility: 4mi
Dew Point: 67°   Wind: 12mph
Humidity: 92%   Direction: 150°SSE
Pressure: 29.74"   Gusts: NA
Location:  32.56°N, 84.1°W
Report Text: KPXE 232055Z AUTO 15010KT 4SM -TSRA OVC003 21/19 A2974 RMK AO2 LTG DSNT NE THRU SW T02070193
Loading
Personal Weather Stations






























Interactive Weather Map New forecast layout! Learn more

10-Day Weather Forecast

Advertisements
Track Severe Weather on mobile